Cirrus team &quotSept 15&quot

Here is a great opportunity to fly into KIAD, have fun and not pay a landing or service fee.

Dulles International Airport, bring the whole family and friends. WX for the 15th KIAD 150051Z 14004KT 9SM SCT050 BKN250 27/21 A3001 RMK AO2 HV a GR8 CI dy

Come out and win the raffles,

Cheers,

Woor

Here is a great opportunity to fly into KIAD, have fun and not pay a landing or service fee.

http://www.planepull.com

Dulles International Airport, bring the whole family and friends. WX for the 15th KIAD 150051Z 14004KT 9SM SCT050 BKN250 27/21 A3001 RMK AO2 HV a GR8 CI dy

Come out and win the raffles,

Cheers,

Woor